createdAt,value
2017-07-10T00:02:18.461Z,6.63
2017-07-10T00:04:46.532Z,7.40
2017-07-10T00:07:14.607Z,6.93
2017-07-10T00:09:42.675Z,7.30
2017-07-10T00:12:10.778Z,7.43
2017-07-10T00:14:38.852Z,7.33
2017-07-10T00:17:07.688Z,7.27
2017-07-10T00:19:35.781Z,7.80
2017-07-10T00:22:03.840Z,6.83
2017-07-10T00:24:31.993Z,6.43
2017-07-10T00:27:00.063Z,7.80
2017-07-10T00:29:28.139Z,7.80
2017-07-10T00:31:56.213Z,6.83
2017-07-10T00:34:24.297Z,7.67
2017-07-10T00:36:52.365Z,7.07
2017-07-10T00:39:20.495Z,7.83
2017-07-10T00:41:49.319Z,8.10
2017-07-10T00:44:17.392Z,7.73
2017-07-10T00:46:45.483Z,6.57
2017-07-10T00:49:13.547Z,7.33
2017-07-10T00:51:41.628Z,6.70
2017-07-10T00:54:09.704Z,6.27
2017-07-10T00:56:37.776Z,5.43
2017-07-10T00:59:05.843Z,5.73
2017-07-10T01:01:33.937Z,5.40
2017-07-10T01:04:02.006Z,5.40
2017-07-10T01:06:30.081Z,6.13
2017-07-10T01:08:58.151Z,6.03
2017-07-10T01:11:26.219Z,5.60
2017-07-10T01:13:54.313Z,4.83
2017-07-10T01:16:23.152Z,4.50
2017-07-10T01:18:51.226Z,4.87
2017-07-10T01:21:19.300Z,4.60
2017-07-10T01:23:47.388Z,4.43
2017-07-10T01:26:15.457Z,4.90
2017-07-10T01:28:43.553Z,4.70
2017-07-10T01:31:12.415Z,5.10
2017-07-10T01:33:40.491Z,5.30
2017-07-10T01:36:08.564Z,5.80
2017-07-10T01:38:36.640Z,6.40
2017-07-10T01:41:04.728Z,5.60
2017-07-10T01:43:32.800Z,5.97
2017-07-10T01:46:00.928Z,5.50
2017-07-10T01:48:29.007Z,6.90
2017-07-10T01:50:57.091Z,6.37
2017-07-10T01:53:25.176Z,7.00
2017-07-10T01:55:53.247Z,6.10
2017-07-10T01:58:21.319Z,6.40
2017-07-10T02:00:49.388Z,6.70
2017-07-10T02:03:17.475Z,7.63
2017-07-10T02:05:45.539Z,6.50
2017-07-10T02:08:13.605Z,6.67
2017-07-10T02:10:41.701Z,7.73
2017-07-10T02:13:09.778Z,7.53
2017-07-10T02:15:38.763Z,7.10
2017-07-10T02:18:06.835Z,8.20
2017-07-10T02:20:34.919Z,8.07
2017-07-10T02:23:03.762Z,7.80
2017-07-10T02:25:31.831Z,8.20
2017-07-10T02:27:59.903Z,8.23
2017-07-10T02:30:27.978Z,7.97
2017-07-10T02:32:56.047Z,7.30
2017-07-10T02:35:24.126Z,7.40
2017-07-10T02:37:52.195Z,6.60
2017-07-10T02:40:20.267Z,7.50
2017-07-10T02:42:49.104Z,6.73
2017-07-10T02:45:17.174Z,7.03
2017-07-10T02:47:45.231Z,6.80
2017-07-10T02:50:13.309Z,6.20
2017-07-10T02:52:41.380Z,5.70
2017-07-10T02:55:09.455Z,7.07
2017-07-10T02:57:37.543Z,6.03
2017-07-10T03:00:05.600Z,5.57
2017-07-10T03:02:33.692Z,5.80
2017-07-10T03:05:02.519Z,6.20
2017-07-10T03:07:30.594Z,6.83
2017-07-10T03:09:58.664Z,7.57
2017-07-10T03:12:26.740Z,8.50
2017-07-10T03:14:54.810Z,7.20
2017-07-10T03:17:22.884Z,8.20
2017-07-10T03:19:50.969Z,7.03
2017-07-10T03:22:19.082Z,8.03
2017-07-10T03:24:47.171Z,7.50
2017-07-10T03:27:15.236Z,7.03
2017-07-10T03:29:44.079Z,7.63
2017-07-10T03:32:12.135Z,6.70
2017-07-10T03:34:40.214Z,7.50
2017-07-10T03:37:08.325Z,7.00
2017-07-10T03:39:36.404Z,6.57
2017-07-10T03:42:05.275Z,6.50
2017-07-10T03:44:33.354Z,6.83
2017-07-10T03:47:01.428Z,7.37
2017-07-10T03:49:29.495Z,7.13
2017-07-10T03:51:57.568Z,7.10
2017-07-10T03:54:25.627Z,7.17
2017-07-10T03:56:53.703Z,6.43
2017-07-10T03:59:21.835Z,6.50
2017-07-10T04:01:49.920Z,7.60
2017-07-10T04:04:18.005Z,7.37
2017-07-10T04:06:46.108Z,7.60
2017-07-10T04:09:14.181Z,6.80
2017-07-10T04:11:42.248Z,6.90
2017-07-10T04:14:10.323Z,6.17
2017-07-10T04:16:38.391Z,7.13
2017-07-10T04:19:06.463Z,6.50
2017-07-10T04:21:34.536Z,6.63
2017-07-10T04:24:02.611Z,6.70
2017-07-10T04:26:30.676Z,7.50
2017-07-10T04:28:58.752Z,7.80
2017-07-10T04:31:26.815Z,7.50
2017-07-10T04:33:54.897Z,7.00
2017-07-10T04:36:22.971Z,7.87
2017-07-10T04:38:51.043Z,7.80
2017-07-10T04:41:19.117Z,8.20
2017-07-10T04:43:47.253Z,8.23
2017-07-10T04:46:15.556Z,7.80
2017-07-10T04:48:43.623Z,7.20
2017-07-10T04:51:11.704Z,6.77
2017-07-10T04:53:40.770Z,7.10
2017-07-10T04:56:08.870Z,7.43
2017-07-10T04:58:36.936Z,6.80
2017-07-10T05:01:04.998Z,7.70
2017-07-10T05:03:33.083Z,6.53
2017-07-10T05:06:01.156Z,6.30
2017-07-10T05:08:29.223Z,7.50
2017-07-10T05:10:57.303Z,7.50
2017-07-10T05:13:25.391Z,6.60
2017-07-10T05:15:53.458Z,6.20
2017-07-10T05:18:21.535Z,6.47
2017-07-10T05:20:49.617Z,5.93
2017-07-10T05:23:17.670Z,5.63
2017-07-10T05:25:45.748Z,6.00
2017-07-10T05:28:13.812Z,6.60
2017-07-10T05:30:41.904Z,5.07
2017-07-10T05:33:09.964Z,5.17
2017-07-10T05:35:38.041Z,5.93
2017-07-10T05:38:06.107Z,5.70
2017-07-10T05:40:34.195Z,5.90
2017-07-10T05:43:03.037Z,6.27
2017-07-10T05:45:31.746Z,5.50
2017-07-10T05:47:59.827Z,6.53
2017-07-10T05:50:27.892Z,5.30
2017-07-10T05:52:55.954Z,6.00
2017-07-10T05:55:24.032Z,6.30
2017-07-10T05:57:52.120Z,5.60
2017-07-10T06:00:20.187Z,5.70
2017-07-10T06:02:48.269Z,5.80
2017-07-10T06:05:16.337Z,5.80
2017-07-10T06:07:44.421Z,6.00
2017-07-10T06:10:12.516Z,4.63
2017-07-10T06:12:40.578Z,5.57
2017-07-10T06:15:09.429Z,5.03
2017-07-10T06:17:37.495Z,4.80
2017-07-10T06:20:05.576Z,5.00
2017-07-10T06:22:33.643Z,5.23
2017-07-10T06:25:01.716Z,3.77
2017-07-10T06:27:29.792Z,3.70
2017-07-10T06:29:57.882Z,4.23
2017-07-10T06:32:28.163Z,4.20
2017-07-10T06:34:56.234Z,3.87
2017-07-10T06:37:24.309Z,4.00
2017-07-10T06:39:52.380Z,3.90
2017-07-10T06:42:20.791Z,4.00
2017-07-10T06:44:48.868Z,4.67
2017-07-10T06:47:16.939Z,3.63
2017-07-10T06:49:45.011Z,3.80
2017-07-10T06:52:13.103Z,3.80
2017-07-10T06:54:41.948Z,4.03
2017-07-10T06:57:10.035Z,4.43
2017-07-10T06:59:38.094Z,3.77
2017-07-10T07:02:07.087Z,3.30
2017-07-10T07:04:35.162Z,3.67
2017-07-10T07:07:03.222Z,3.60
2017-07-10T07:09:31.295Z,3.07
2017-07-10T07:11:59.362Z,3.30
2017-07-10T07:14:27.436Z,3.30
2017-07-10T07:16:55.496Z,3.47
2017-07-10T07:19:23.582Z,3.00
2017-07-10T07:21:51.652Z,2.73
2017-07-10T07:24:19.728Z,3.30
2017-07-10T07:26:47.798Z,3.17
2017-07-10T07:29:15.868Z,2.73
2017-07-10T07:31:43.943Z,3.70
2017-07-10T07:34:12.012Z,3.53
2017-07-10T07:36:40.097Z,2.90
2017-07-10T07:39:08.159Z,3.03
2017-07-10T07:41:36.230Z,3.20
2017-07-10T07:44:04.313Z,3.30
2017-07-10T07:46:32.395Z,3.27
2017-07-10T07:49:00.461Z,2.50
2017-07-10T07:51:28.542Z,2.60
2017-07-10T07:53:56.613Z,3.10
2017-07-10T07:56:24.688Z,3.23
2017-07-10T07:58:53.684Z,3.90
2017-07-10T08:01:21.755Z,2.80
2017-07-10T08:03:49.827Z,3.57
2017-07-10T08:06:17.973Z,3.40
2017-07-10T08:08:46.036Z,3.30
2017-07-10T08:11:14.110Z,3.83
2017-07-10T08:13:42.199Z,3.83
2017-07-10T08:16:10.263Z,3.40
2017-07-10T08:18:38.352Z,3.33
2017-07-10T08:21:06.428Z,3.27
2017-07-10T08:23:34.493Z,4.17
2017-07-10T08:26:02.570Z,4.03
2017-07-10T08:28:30.661Z,4.13
2017-07-10T08:30:58.741Z,3.30
2017-07-10T08:33:26.828Z,3.70
2017-07-10T08:35:55.676Z,3.57
2017-07-10T08:38:23.743Z,4.20
2017-07-10T08:40:51.823Z,3.30
2017-07-10T08:43:19.920Z,3.53
2017-07-10T08:45:47.995Z,4.03
2017-07-10T08:48:16.064Z,4.47
2017-07-10T08:50:44.135Z,4.20
2017-07-10T08:53:12.208Z,4.73
2017-07-10T08:55:40.280Z,3.77
2017-07-10T08:58:08.352Z,3.80
2017-07-10T09:00:36.419Z,3.63
2017-07-10T09:03:04.508Z,3.60
2017-07-10T09:05:32.571Z,3.67
2017-07-10T09:08:00.654Z,3.60
2017-07-10T09:10:29.676Z,3.50
2017-07-10T09:12:57.768Z,4.27
2017-07-10T09:15:25.962Z,3.77
2017-07-10T09:17:54.035Z,3.37
2017-07-10T09:20:22.649Z,3.63
2017-07-10T09:22:50.712Z,4.40
2017-07-10T09:25:18.784Z,3.77
2017-07-10T09:27:46.857Z,4.00
2017-07-10T09:30:14.932Z,3.63
2017-07-10T09:32:43.034Z,3.60
2017-07-10T09:35:11.128Z,4.40
2017-07-10T09:37:39.187Z,4.03
2017-07-10T09:40:08.125Z,3.90
2017-07-10T09:42:36.198Z,3.67
2017-07-10T09:45:04.263Z,3.67
2017-07-10T09:47:32.342Z,4.47
2017-07-10T09:50:00.403Z,3.67
2017-07-10T09:52:28.483Z,4.33
2017-07-10T09:54:56.568Z,3.90
2017-07-10T09:57:24.644Z,3.73
2017-07-10T09:59:52.734Z,3.43
2017-07-10T10:02:21.573Z,3.77
2017-07-10T10:04:49.640Z,3.73
2017-07-10T10:07:17.737Z,3.27
2017-07-10T10:09:45.806Z,3.37
2017-07-10T10:12:13.876Z,3.60
2017-07-10T10:14:41.948Z,3.63
2017-07-10T10:17:10.011Z,3.60
2017-07-10T10:19:38.083Z,3.17
2017-07-10T10:22:06.360Z,3.40
2017-07-10T10:24:34.471Z,3.10
2017-07-10T10:27:02.532Z,2.80
2017-07-10T10:29:30.635Z,2.80
2017-07-10T10:31:58.708Z,5.83
2017-07-10T10:34:26.787Z,4.70
2017-07-10T10:36:54.852Z,4.03
2017-07-10T10:39:23.692Z,4.13
2017-07-10T10:41:51.759Z,4.00
2017-07-10T10:44:19.820Z,4.20
2017-07-10T10:46:47.895Z,4.10
2017-07-10T10:49:15.961Z,3.90
2017-07-10T10:51:44.036Z,4.20
2017-07-10T10:54:12.106Z,3.63
2017-07-10T10:56:40.188Z,3.40
2017-07-10T10:59:08.248Z,3.50
2017-07-10T11:01:36.327Z,3.50
2017-07-10T11:04:04.378Z,3.73
2017-07-10T11:06:32.464Z,3.77
2017-07-10T11:09:00.523Z,3.70
2017-07-10T11:11:28.582Z,4.00
2017-07-10T11:13:56.652Z,3.93
2017-07-10T11:16:24.718Z,4.77
2017-07-10T11:18:52.796Z,4.73
2017-07-10T11:21:20.856Z,4.50
2017-07-10T11:23:49.691Z,4.97
2017-07-10T11:26:17.864Z,4.43
2017-07-10T11:28:45.934Z,4.80
2017-07-10T11:31:14.001Z,6.07
2017-07-10T11:33:42.068Z,4.53
2017-07-10T11:36:10.128Z,4.70
2017-07-10T11:38:38.204Z,5.23
2017-07-10T11:41:06.322Z,4.87
2017-07-10T11:43:34.384Z,4.03
2017-07-10T11:46:02.459Z,4.57
2017-07-10T11:48:30.522Z,4.27
2017-07-10T11:50:58.593Z,4.70
2017-07-10T11:53:26.659Z,4.73
2017-07-10T11:55:54.728Z,4.93
2017-07-10T11:58:22.787Z,5.50
2017-07-10T12:00:50.876Z,4.87
2017-07-10T12:03:18.951Z,5.10
2017-07-10T12:05:47.780Z,5.17
2017-07-10T12:08:15.858Z,4.53
2017-07-10T12:10:43.924Z,5.10
2017-07-10T12:13:12.003Z,5.00
2017-07-10T12:15:40.062Z,4.97
2017-07-10T12:18:08.207Z,4.73
2017-07-10T12:20:36.375Z,5.13
2017-07-10T12:23:04.450Z,4.97
2017-07-10T12:25:32.519Z,5.10
2017-07-10T12:28:00.578Z,5.67
2017-07-10T12:30:28.663Z,4.50
2017-07-10T12:32:56.747Z,5.30
2017-07-10T12:35:24.832Z,4.70
2017-07-10T12:37:52.913Z,5.43
2017-07-10T12:40:20.990Z,5.47
2017-07-10T12:42:49.068Z,5.30
2017-07-10T12:45:17.135Z,5.30
2017-07-10T12:47:45.212Z,5.30
2017-07-10T12:50:13.284Z,5.27
2017-07-10T12:52:41.351Z,5.00
2017-07-10T12:55:09.406Z,4.50
2017-07-10T12:57:37.483Z,4.73
2017-07-10T13:00:05.547Z,4.30
2017-07-10T13:02:33.623Z,4.87
2017-07-10T13:05:01.691Z,4.80
2017-07-10T13:07:29.772Z,4.97
2017-07-10T13:09:57.840Z,4.60
2017-07-10T13:12:25.933Z,4.90
2017-07-10T13:14:53.999Z,4.50
2017-07-10T13:17:22.064Z,4.83
2017-07-10T13:19:50.147Z,5.10
2017-07-10T13:22:18.219Z,5.03
2017-07-10T13:24:46.292Z,5.17
2017-07-10T13:27:14.355Z,4.83
2017-07-10T13:29:42.437Z,6.63
2017-07-10T13:32:10.492Z,5.03
2017-07-10T13:34:38.576Z,4.90
2017-07-10T13:37:06.640Z,4.40
2017-07-10T13:39:34.708Z,3.90
2017-07-10T13:42:02.788Z,4.37
2017-07-10T13:44:30.862Z,4.17
2017-07-10T13:46:59.251Z,4.10
2017-07-10T13:49:27.319Z,4.60
2017-07-10T13:51:55.395Z,4.10
2017-07-10T13:54:23.467Z,4.40
2017-07-10T13:56:51.557Z,4.00
2017-07-10T13:59:20.396Z,4.10
2017-07-10T14:01:49.252Z,4.00
2017-07-10T14:04:17.327Z,3.80
2017-07-10T14:06:45.396Z,3.30
2017-07-10T14:09:13.505Z,3.50
2017-07-10T14:11:41.585Z,3.80
2017-07-10T14:14:09.661Z,3.27
2017-07-10T14:16:38.551Z,3.70
2017-07-10T14:19:06.632Z,3.80
2017-07-10T14:21:34.716Z,4.13
2017-07-10T14:24:02.807Z,3.70
2017-07-10T14:26:30.881Z,4.00
2017-07-10T14:28:58.967Z,3.53
2017-07-10T14:31:27.074Z,4.30
2017-07-10T14:33:55.143Z,4.10
2017-07-10T14:36:23.261Z,3.70
2017-07-10T14:38:51.336Z,3.30
2017-07-10T14:41:19.435Z,4.10
2017-07-10T14:43:47.500Z,3.93
2017-07-10T14:46:15.575Z,3.77
2017-07-10T14:48:43.639Z,3.90
2017-07-10T14:51:12.496Z,4.10
2017-07-10T14:53:40.562Z,4.10
2017-07-10T14:56:08.628Z,3.67
2017-07-10T14:58:36.760Z,3.73
2017-07-10T15:01:04.836Z,4.37
2017-07-10T15:03:32.906Z,3.57
2017-07-10T15:06:00.967Z,3.30
2017-07-10T15:08:29.812Z,3.70
2017-07-10T15:10:57.885Z,3.77
2017-07-10T15:13:25.959Z,4.27
2017-07-10T15:15:54.037Z,4.10
2017-07-10T15:18:22.111Z,3.33
2017-07-10T15:20:50.176Z,3.63
2017-07-10T15:23:18.267Z,3.07
2017-07-10T15:25:46.372Z,3.43
2017-07-10T15:28:14.438Z,4.10
2017-07-10T15:30:42.515Z,3.70
2017-07-10T15:33:11.088Z,3.57
2017-07-10T15:35:39.164Z,3.90
2017-07-10T15:38:07.226Z,3.63
2017-07-10T15:40:36.076Z,3.83
2017-07-10T15:43:04.157Z,4.03
2017-07-10T15:45:32.231Z,3.63
2017-07-10T15:48:00.303Z,3.77
2017-07-10T15:50:28.387Z,3.40
2017-07-10T15:52:56.458Z,4.30
2017-07-10T15:55:24.533Z,3.50
2017-07-10T15:57:52.615Z,3.30
2017-07-10T16:00:20.689Z,2.87
2017-07-10T16:02:49.472Z,3.03
2017-07-10T16:05:17.535Z,3.07
2017-07-10T16:07:45.614Z,3.80
2017-07-10T16:10:13.683Z,3.90
2017-07-10T16:12:41.767Z,3.30
2017-07-10T16:15:09.836Z,3.40
2017-07-10T16:17:37.920Z,2.90
2017-07-10T16:20:06.755Z,3.03
2017-07-10T16:22:34.844Z,3.10
2017-07-10T16:25:02.904Z,3.17
2017-07-10T16:27:30.988Z,3.00
2017-07-10T16:29:59.059Z,3.27
2017-07-10T16:32:27.131Z,3.63
2017-07-10T16:34:55.228Z,4.00
2017-07-10T16:37:23.388Z,3.53
2017-07-10T16:39:51.471Z,4.13
2017-07-10T16:42:19.539Z,3.90
2017-07-10T16:44:47.616Z,3.20
2017-07-10T16:47:15.684Z,3.87
2017-07-10T16:49:43.781Z,3.67
2017-07-10T16:52:11.887Z,3.30
2017-07-10T16:54:39.958Z,3.40
2017-07-10T16:57:08.030Z,2.90
2017-07-10T16:59:36.136Z,3.17
2017-07-10T17:02:04.211Z,3.80
2017-07-10T17:04:32.274Z,3.37
2017-07-10T17:07:00.363Z,2.80
2017-07-10T17:09:28.426Z,2.90
2017-07-10T17:11:56.507Z,2.80
2017-07-10T17:14:24.597Z,2.60
2017-07-10T17:16:52.717Z,3.00
2017-07-10T17:19:20.801Z,2.83
2017-07-10T17:21:49.004Z,3.17
2017-07-10T17:24:17.075Z,3.53
2017-07-10T17:26:45.159Z,3.30
2017-07-10T17:29:13.265Z,3.40
2017-07-10T17:31:41.335Z,3.40
2017-07-10T17:34:09.421Z,3.90
2017-07-10T17:36:37.501Z,2.90
2017-07-10T17:39:05.827Z,3.53
2017-07-10T17:41:34.127Z,3.27
2017-07-10T17:44:02.973Z,3.47
2017-07-10T17:46:31.061Z,3.07
2017-07-10T17:48:59.143Z,3.50
2017-07-10T17:51:28.071Z,4.03
2017-07-10T17:53:56.240Z,3.90
2017-07-10T17:56:24.313Z,3.63
2017-07-10T17:58:52.413Z,3.17
2017-07-10T18:01:20.496Z,3.73
2017-07-10T18:03:48.584Z,3.10
2017-07-10T18:06:16.659Z,2.90
2017-07-10T18:08:44.740Z,3.57
2017-07-10T18:11:13.596Z,3.30
2017-07-10T18:13:41.666Z,3.33
2017-07-10T18:16:09.757Z,3.37
2017-07-10T18:18:37.827Z,3.20
2017-07-10T18:21:05.918Z,3.77
2017-07-10T18:23:33.984Z,4.90
2017-07-10T18:26:02.055Z,4.30
2017-07-10T18:28:30.154Z,4.33
2017-07-10T18:30:58.197Z,3.63
2017-07-10T18:33:26.288Z,4.40
2017-07-10T18:35:54.358Z,3.70
2017-07-10T18:38:22.433Z,5.13
2017-07-10T18:40:51.266Z,4.00
2017-07-10T18:43:19.353Z,4.30
2017-07-10T18:45:47.419Z,3.67
2017-07-10T18:48:15.483Z,3.80
2017-07-10T18:50:43.574Z,3.90
2017-07-10T18:53:11.667Z,3.97
2017-07-10T18:55:39.738Z,4.13
2017-07-10T18:58:07.811Z,4.10
2017-07-10T19:00:35.893Z,4.50
2017-07-10T19:03:03.977Z,4.60
2017-07-10T19:05:32.824Z,4.90
2017-07-10T19:08:00.893Z,4.70
2017-07-10T19:10:28.992Z,5.13
2017-07-10T19:12:57.064Z,4.80
2017-07-10T19:15:25.152Z,4.20
2017-07-10T19:17:53.228Z,4.03
2017-07-10T19:20:22.063Z,3.90
2017-07-10T19:22:50.158Z,3.77
2017-07-10T19:25:18.227Z,3.70
2017-07-10T19:27:46.304Z,4.40
2017-07-10T19:30:14.381Z,4.20
2017-07-10T19:32:42.468Z,3.60
2017-07-10T19:35:10.546Z,4.17
2017-07-10T19:37:38.618Z,4.40
2017-07-10T19:40:07.457Z,4.17
2017-07-10T19:42:35.551Z,4.40
2017-07-10T19:45:03.623Z,4.40
2017-07-10T19:47:31.721Z,3.60
2017-07-10T19:49:59.799Z,4.00
2017-07-10T19:52:28.638Z,3.60
2017-07-10T19:54:56.719Z,2.83
2017-07-10T19:57:24.794Z,3.50
2017-07-10T19:59:52.923Z,2.97
2017-07-10T20:02:21.762Z,3.27
2017-07-10T20:04:49.840Z,3.70
2017-07-10T20:07:17.918Z,3.60
2017-07-10T20:09:46.007Z,3.50
2017-07-10T20:12:14.087Z,3.50
2017-07-10T20:14:42.160Z,3.70
2017-07-10T20:17:10.232Z,3.87
2017-07-10T20:19:38.303Z,4.10
2017-07-10T20:22:06.388Z,3.40
2017-07-10T20:24:34.457Z,4.00
2017-07-10T20:27:03.314Z,3.60
2017-07-10T20:29:31.388Z,3.30
2017-07-10T20:31:59.485Z,3.87
2017-07-10T20:34:27.561Z,4.50
2017-07-10T20:36:56.424Z,3.63
2017-07-10T20:39:24.492Z,3.70
2017-07-10T20:41:52.555Z,3.73
2017-07-10T20:44:20.641Z,3.80
2017-07-10T20:46:48.712Z,3.70
2017-07-10T20:49:16.799Z,4.10
2017-07-10T20:51:44.873Z,3.23
2017-07-10T20:54:12.967Z,3.93
2017-07-10T20:56:41.803Z,3.83
2017-07-10T20:59:09.891Z,3.17
2017-07-10T21:01:37.964Z,4.03
2017-07-10T21:04:06.047Z,3.47
2017-07-10T21:06:34.121Z,3.60
2017-07-10T21:09:02.187Z,3.30
2017-07-10T21:11:30.406Z,4.70
2017-07-10T21:13:58.646Z,4.10
2017-07-10T21:16:27.026Z,4.00
2017-07-10T21:18:55.096Z,4.00
2017-07-10T21:21:23.170Z,3.80
2017-07-10T21:23:51.235Z,4.47
2017-07-10T21:26:19.317Z,5.10
2017-07-10T21:28:47.384Z,4.33
2017-07-10T21:31:15.448Z,4.10
2017-07-10T21:33:43.538Z,4.07
2017-07-10T21:36:11.598Z,4.10
2017-07-10T21:38:39.671Z,4.33
2017-07-10T21:41:07.743Z,4.87
2017-07-10T21:43:35.836Z,5.30
2017-07-10T21:46:04.672Z,5.63
2017-07-10T21:48:32.751Z,5.93
2017-07-10T21:51:00.823Z,6.43
2017-07-10T21:53:28.891Z,5.43
2017-07-10T21:55:56.972Z,5.10
2017-07-10T21:58:25.034Z,4.60
2017-07-10T22:00:53.120Z,5.23
2017-07-10T22:03:21.173Z,5.10
2017-07-10T22:05:49.273Z,5.13
2017-07-10T22:08:17.339Z,5.17
2017-07-10T22:10:45.416Z,5.60
2017-07-10T22:13:13.496Z,5.47
2017-07-10T22:15:41.564Z,5.20
2017-07-10T22:18:09.636Z,5.70
2017-07-10T22:20:37.707Z,5.27
2017-07-10T22:23:05.778Z,5.33
2017-07-10T22:25:33.852Z,6.17
2017-07-10T22:28:01.939Z,5.13
2017-07-10T22:30:30.013Z,5.90
2017-07-10T22:32:58.196Z,5.93
2017-07-10T22:35:26.268Z,6.40
2017-07-10T22:37:54.337Z,6.43
2017-07-10T22:40:22.412Z,6.10
2017-07-10T22:42:50.483Z,5.90
2017-07-10T22:45:18.558Z,5.93
2017-07-10T22:47:47.395Z,5.27
2017-07-10T22:50:15.482Z,6.93
2017-07-10T22:52:43.543Z,6.20
2017-07-10T22:55:11.624Z,6.20
2017-07-10T22:57:40.046Z,6.00
2017-07-10T23:00:08.123Z,6.00
2017-07-10T23:02:36.964Z,5.67
2017-07-10T23:05:05.027Z,5.87
2017-07-10T23:07:33.100Z,5.43
2017-07-10T23:10:01.172Z,5.50
2017-07-10T23:12:29.251Z,6.53
2017-07-10T23:14:57.325Z,5.83
2017-07-10T23:17:25.388Z,6.20
2017-07-10T23:19:53.463Z,5.83
2017-07-10T23:22:21.535Z,6.00
2017-07-10T23:24:49.612Z,5.60
2017-07-10T23:27:17.712Z,5.70
2017-07-10T23:29:45.799Z,5.70
2017-07-10T23:32:13.868Z,6.57
2017-07-10T23:34:41.968Z,6.10
2017-07-10T23:37:10.035Z,6.03
2017-07-10T23:39:38.104Z,6.40
2017-07-10T23:42:06.179Z,6.10
2017-07-10T23:44:35.008Z,6.23
2017-07-10T23:47:03.078Z,6.17
2017-07-10T23:49:31.160Z,7.17
2017-07-10T23:51:59.245Z,6.37
2017-07-10T23:54:27.316Z,6.70
2017-07-10T23:56:55.432Z,6.10
2017-07-10T23:59:24.262Z,6.20
